Estherville, IA

6:52 AM CST on January 29, 2015 (GMT -0600)
Estherville Municipal | Change Station
CLOSE
Current Station
Airport
Location: Estherville,
Elevation: 1316 ft
Nearby Weather Stations
Active Advisory: Wind Advisory

Elev 1316 ft 43.40 °N, 94.75 °W | Updated 1 hour ago

Overcast
Overcast
30 °F
Feels Like 15 °F
N
29
Wind Variable Wind from NNW
Gusts 41 mph

Today
High -- | Low -- °F
--% Chance of Precip.
Yesterday
High -- | Low -- °F
Precip. -- in
7:38 AM 5:26 PM
Waxing Gibbous, 74% visible
Pressure 30.15 in
Visibility 10.0 miles
Clouds Overcast 1200 ft
Windchill 15 °F
Dew Point 26 °F
Humidity 85%
Rainfall 0.00 in
Snow Depth Not available.
UV 0 out of 12
Pollen .90 out of 12
Air Quality Not available.
Flu Activity Not available.
METAR KEST 291152Z AUTO 33025G36KT 10SM OVC012 M01/M03 A3010 RMK AO2 PK WND 33039/1101 SLP208 60000 I6000 T10111033 10006 21011 53039

More Conditions Fewer Conditions

Pressure 30.15 in
Visibility 10.0 miles
Clouds Overcast 1200 ft
Windchill 15 °F
Dew Point 26 °F
Humidity 85%
Rainfall 0.00 in
Snow Depth Not available.
UV 0 out of 12
Pollen .90 out of 12
Air Quality Not available.
Flu Activity Not available.
METAR KEST 291152Z AUTO 33025G36KT 10SM OVC012 M01/M03 A3010 RMK AO2 PK WND 33039/1101 SLP208 60000 I6000 T10111033 10006 21011 53039

More Conditions Fewer Conditions

10-Day Weather Forecast

Almanac

Astronomy

Jan. 29, 2015 Rise Set
Actual Time
Civil Twilight
Nautical Twilight
Astronomical Twilight
Moon
Length of Visible Light
Length of Day
Tomorrow will be .
, % of the Moon is Illuminated

Today's Extremes

State Highs State Lows

Community

WunderPhotos

Upload Photos

1,791,420 photos uploaded!

WunderBlogs® & News

Nearby

Air Quality

  Air Quality AQ Index Pollutant
Not available.

Snow Depth

Station Depth Elevation

Earthquake Activity

City Distance Mag. Time & Date
Minimum magnitude displayed is 2.5.

Coastal Water Temperatures

Place Temperature

Nearby Weather Stations